createdAt,value
2022-08-20T00:02:09.132Z,78.09
2022-08-20T00:04:39.618Z,77.74
2022-08-20T00:07:07.244Z,77.66
2022-08-20T00:09:36.690Z,76.32
2022-08-20T00:12:06.057Z,76.81
2022-08-20T00:14:33.963Z,76.54
2022-08-20T00:17:01.372Z,77.42
2022-08-20T00:19:27.918Z,76.59
2022-08-20T00:21:58.101Z,76.31
2022-08-20T00:24:25.728Z,75.31
2022-08-20T00:26:52.933Z,75.43
2022-08-20T00:29:20.212Z,73.96
2022-08-20T00:31:46.966Z,72.70
2022-08-20T00:34:13.393Z,73.58
2022-08-20T00:36:39.903Z,73.46
2022-08-20T00:39:06.371Z,72.67
2022-08-20T00:41:32.947Z,72.25
2022-08-20T00:44:16.532Z,73.01
2022-08-20T00:46:46.754Z,72.68
2022-08-20T00:49:28.618Z,72.33
2022-08-20T00:52:07.039Z,72.54
2022-08-20T00:54:57.363Z,71.51
2022-08-20T00:58:00.568Z,71.39
2022-08-20T01:00:33.061Z,69.82
2022-08-20T01:03:00.597Z,69.77
2022-08-20T01:05:29.650Z,67.20
2022-08-20T01:07:58.347Z,66.07
2022-08-20T01:10:29.728Z,64.71
2022-08-20T01:12:59.346Z,64.82
2022-08-20T01:15:31.122Z,63.71
2022-08-20T01:18:00.172Z,62.80
2022-08-20T01:20:31.926Z,62.55
2022-08-20T01:23:30.605Z,62.75
2022-08-20T01:26:00.473Z,63.21
2022-08-20T01:28:50.243Z,61.77
2022-08-20T01:31:20.268Z,62.62
2022-08-20T01:33:48.944Z,61.72
2022-08-20T01:36:16.715Z,63.08
2022-08-20T01:38:53.858Z,63.22
2022-08-20T01:41:33.135Z,62.75
2022-08-20T01:43:59.956Z,62.67
2022-08-20T01:46:32.833Z,62.95
2022-08-20T01:49:23.128Z,60.32
2022-08-20T01:51:52.693Z,58.50
2022-08-20T01:54:20.281Z,58.03
2022-08-20T01:56:57.824Z,60.70
2022-08-20T01:59:24.998Z,58.94
2022-08-20T02:01:58.197Z,59.13
2022-08-20T02:04:26.763Z,59.91
2022-08-20T02:06:58.212Z,60.82
2022-08-20T02:09:42.037Z,61.42
2022-08-20T02:12:13.235Z,62.27
2022-08-20T02:14:51.351Z,63.09
2022-08-20T02:17:21.083Z,62.72
2022-08-20T02:19:52.468Z,63.42
2022-08-20T02:22:29.589Z,63.10
2022-08-20T02:24:56.360Z,63.52
2022-08-20T02:27:23.671Z,64.15
2022-08-20T02:29:51.282Z,63.86
2022-08-20T02:32:32.508Z,64.02
2022-08-20T02:35:05.861Z,64.13
2022-08-20T02:37:32.505Z,64.80
2022-08-20T02:39:59.187Z,64.33
2022-08-20T02:42:26.470Z,64.54
2022-08-20T02:44:54.074Z,65.47
2022-08-20T02:47:23.578Z,65.17
2022-08-20T02:49:50.134Z,65.80
2022-08-20T02:52:16.659Z,67.02
2022-08-20T02:54:43.149Z,67.85
2022-08-20T02:57:20.298Z,68.36
2022-08-20T02:59:48.138Z,69.30
2022-08-20T03:02:15.713Z,69.94
2022-08-20T03:04:42.911Z,70.29
2022-08-20T03:07:10.902Z,71.02
2022-08-20T03:09:38.398Z,71.89
2022-08-20T03:12:06.778Z,72.16
2022-08-20T03:14:34.070Z,72.06
2022-08-20T03:17:02.276Z,72.55
2022-08-20T03:19:29.861Z,72.82
2022-08-20T03:21:56.341Z,73.05
2022-08-20T03:24:23.053Z,72.96
2022-08-20T03:26:49.786Z,73.16
2022-08-20T03:29:16.342Z,72.68
2022-08-20T03:31:42.800Z,71.94
2022-08-20T03:34:16.831Z,71.29
2022-08-20T03:36:43.397Z,72.06
2022-08-20T03:39:13.084Z,71.78
2022-08-20T03:41:40.046Z,70.89
2022-08-20T03:44:06.944Z,70.82
2022-08-20T03:46:34.171Z,70.79
2022-08-20T03:49:00.962Z,69.94
2022-08-20T03:51:31.691Z,70.25
2022-08-20T03:54:12.277Z,70.67
2022-08-20T03:56:41.479Z,70.72
2022-08-20T03:59:08.278Z,70.79
2022-08-20T04:01:44.425Z,70.54
2022-08-20T04:04:12.899Z,69.92
2022-08-20T04:06:39.994Z,69.52
2022-08-20T04:09:07.041Z,69.14
2022-08-20T04:11:37.541Z,69.29
2022-08-20T04:14:04.813Z,68.11
2022-08-20T04:16:33.043Z,69.12
2022-08-20T04:19:02.449Z,68.02
2022-08-20T04:21:33.523Z,67.98
2022-08-20T04:24:02.344Z,68.44
2022-08-20T04:26:29.127Z,67.27
2022-08-20T04:28:55.926Z,67.69
2022-08-20T04:31:33.442Z,67.61
2022-08-20T04:34:04.569Z,67.34
2022-08-20T04:36:35.244Z,66.92
2022-08-20T04:39:01.713Z,66.23
2022-08-20T04:41:28.380Z,66.18
2022-08-20T04:43:56.335Z,65.67
2022-08-20T04:46:25.933Z,66.03
2022-08-20T04:48:52.805Z,66.71
2022-08-20T04:51:22.720Z,67.34
2022-08-20T04:53:51.862Z,67.75
2022-08-20T04:56:23.544Z,67.90
2022-08-20T04:58:51.451Z,67.28
2022-08-20T05:01:18.285Z,66.46
2022-08-20T05:03:47.826Z,65.98
2022-08-20T05:06:16.129Z,66.42
2022-08-20T05:08:43.144Z,66.39
2022-08-20T05:11:34.299Z,66.75
2022-08-20T05:14:01.031Z,66.72
2022-08-20T05:16:31.734Z,66.47
2022-08-20T05:18:58.482Z,66.38
2022-08-20T05:21:24.918Z,66.67
2022-08-20T05:23:51.600Z,67.47
2022-08-20T05:26:19.939Z,67.30
2022-08-20T05:28:57.570Z,67.61
2022-08-20T05:31:31.344Z,68.20
2022-08-20T05:34:01.576Z,67.25
2022-08-20T05:36:28.213Z,67.51
2022-08-20T05:38:54.795Z,66.06
2022-08-20T05:41:28.672Z,66.26
2022-08-20T05:43:56.784Z,66.47
2022-08-20T05:46:23.357Z,67.11
2022-08-20T05:48:49.894Z,67.23
2022-08-20T05:51:16.358Z,66.06
2022-08-20T05:53:43.866Z,67.71
2022-08-20T05:56:13.366Z,68.70
2022-08-20T05:58:42.669Z,69.14
2022-08-20T06:01:11.578Z,67.74
2022-08-20T06:03:56.937Z,66.80
2022-08-20T06:06:44.854Z,66.33
2022-08-20T06:09:13.130Z,66.21
2022-08-20T06:11:42.177Z,65.43
2022-08-20T06:14:08.683Z,63.39
2022-08-20T06:16:37.260Z,64.07
2022-08-20T06:19:05.111Z,64.68
2022-08-20T06:21:31.803Z,63.79
2022-08-20T06:23:59.672Z,64.72
2022-08-20T06:26:29.753Z,62.57
2022-08-20T06:29:04.293Z,60.12
2022-08-20T06:31:30.829Z,60.36
2022-08-20T06:33:57.320Z,59.32
2022-08-20T06:36:25.028Z,59.63
2022-08-20T06:38:51.706Z,60.38
2022-08-20T06:41:18.476Z,58.12
2022-08-20T06:43:45.116Z,58.69
2022-08-20T06:46:12.846Z,58.52
2022-08-20T06:48:39.624Z,57.93
2022-08-20T06:51:06.738Z,57.17
2022-08-20T06:53:33.342Z,57.42
2022-08-20T06:55:59.842Z,56.19
2022-08-20T06:58:37.705Z,56.38
2022-08-20T07:01:11.391Z,55.94
2022-08-20T07:03:55.689Z,54.61
2022-08-20T07:06:25.867Z,52.52
2022-08-20T07:08:53.667Z,52.88
2022-08-20T07:11:26.335Z,55.47
2022-08-20T07:13:54.634Z,53.55
2022-08-20T07:16:21.089Z,53.87
2022-08-20T07:18:49.882Z,52.87
2022-08-20T07:21:17.371Z,56.05
2022-08-20T07:23:43.933Z,54.64
2022-08-20T07:26:17.030Z,52.33
2022-08-20T07:28:43.623Z,53.48
2022-08-20T07:31:28.787Z,52.86
2022-08-20T07:33:58.152Z,54.29
2022-08-20T07:36:26.972Z,50.95
2022-08-20T07:38:54.625Z,52.52
2022-08-20T07:41:23.486Z,51.70
2022-08-20T07:43:50.143Z,51.94
2022-08-20T07:46:20.808Z,49.30
2022-08-20T07:48:49.824Z,50.35
2022-08-20T07:51:19.158Z,51.42
2022-08-20T07:53:48.729Z,49.55
2022-08-20T07:56:19.312Z,49.72
2022-08-20T07:58:51.174Z,49.33
2022-08-20T08:01:20.273Z,49.67
2022-08-20T08:03:50.017Z,49.58
2022-08-20T08:06:28.610Z,49.29
2022-08-20T08:09:06.897Z,52.04
2022-08-20T08:11:34.836Z,51.90
2022-08-20T08:14:02.854Z,50.63
2022-08-20T08:16:32.548Z,50.41
2022-08-20T08:19:01.983Z,49.22
2022-08-20T08:21:31.742Z,49.31
2022-08-20T08:23:58.446Z,49.57
2022-08-20T08:26:26.248Z,47.83
2022-08-20T08:28:52.788Z,47.88
2022-08-20T08:31:19.254Z,48.88
2022-08-20T08:33:45.964Z,49.91
2022-08-20T08:36:15.195Z,47.61
2022-08-20T08:38:44.766Z,49.04
2022-08-20T08:41:20.394Z,48.96
2022-08-20T08:43:55.572Z,48.28
2022-08-20T08:46:28.028Z,49.25
2022-08-20T08:48:57.904Z,49.43
2022-08-20T08:51:37.243Z,48.79
2022-08-20T08:54:08.321Z,48.05
2022-08-20T08:56:35.944Z,47.97
2022-08-20T08:59:04.359Z,50.63
2022-08-20T09:01:54.948Z,48.97
2022-08-20T09:04:32.553Z,48.65
2022-08-20T09:06:59.992Z,49.90
2022-08-20T09:09:33.842Z,49.39
2022-08-20T09:12:25.732Z,49.60
2022-08-20T09:14:52.181Z,47.65
2022-08-20T09:17:21.525Z,48.19
2022-08-20T09:19:48.093Z,47.06
2022-08-20T09:22:25.538Z,47.83
2022-08-20T09:24:52.233Z,47.20
2022-08-20T09:27:19.310Z,47.55
2022-08-20T09:29:46.057Z,47.50
2022-08-20T09:32:21.580Z,47.93
2022-08-20T09:35:12.548Z,48.49
2022-08-20T09:37:41.275Z,46.75
2022-08-20T09:40:09.129Z,46.03
2022-08-20T09:42:41.962Z,47.36
2022-08-20T09:45:11.730Z,46.57
2022-08-20T09:48:10.222Z,47.16
2022-08-20T09:50:30.955Z,47.36
2022-08-20T09:53:00.944Z,47.18
2022-08-20T09:55:35.800Z,45.41
2022-08-20T09:58:11.458Z,44.49
2022-08-20T10:00:37.967Z,44.38
2022-08-20T10:03:04.425Z,45.65
2022-08-20T10:05:31.641Z,44.42
2022-08-20T10:07:58.334Z,45.49
2022-08-20T10:10:25.426Z,45.13
2022-08-20T10:12:55.178Z,46.36
2022-08-20T10:15:21.784Z,45.53
2022-08-20T10:17:51.052Z,44.02
2022-08-20T10:20:19.016Z,45.86
2022-08-20T10:22:45.678Z,44.65
2022-08-20T10:25:12.749Z,43.11
2022-08-20T10:27:41.290Z,44.12
2022-08-20T10:30:08.461Z,44.76
2022-08-20T10:32:35.194Z,43.61
2022-08-20T10:35:02.062Z,43.60
2022-08-20T10:37:28.519Z,43.27
2022-08-20T10:39:57.953Z,42.58
2022-08-20T10:42:24.625Z,46.05
2022-08-20T10:44:51.126Z,45.24
2022-08-20T10:47:27.206Z,45.75
2022-08-20T10:49:57.814Z,44.15
2022-08-20T10:52:25.662Z,45.99
2022-08-20T10:54:52.637Z,42.54
2022-08-20T10:57:27.610Z,44.60
2022-08-20T10:59:56.641Z,41.88
2022-08-20T11:02:24.453Z,42.45
2022-08-20T11:04:51.897Z,43.52
2022-08-20T11:07:49.909Z,44.46
2022-08-20T11:10:14.921Z,45.19
2022-08-20T11:12:42.104Z,43.55
2022-08-20T11:15:13.136Z,42.96
2022-08-20T11:17:44.028Z,45.10
2022-08-20T11:20:16.384Z,44.21
2022-08-20T11:22:42.847Z,44.61
2022-08-20T11:25:13.273Z,44.14
2022-08-20T11:27:42.923Z,42.50
2022-08-20T11:30:18.212Z,43.28
2022-08-20T11:32:45.023Z,47.69
2022-08-20T11:35:40.466Z,43.80
2022-08-20T11:37:59.298Z,44.06
2022-08-20T11:40:27.874Z,43.21
2022-08-20T11:43:13.685Z,41.68
2022-08-20T11:45:41.318Z,43.46
2022-08-20T11:48:08.041Z,42.11
2022-08-20T11:50:34.482Z,40.97
2022-08-20T11:53:01.492Z,43.33
2022-08-20T11:55:30.094Z,41.82
2022-08-20T11:57:57.381Z,46.52
2022-08-20T12:00:32.172Z,43.48
2022-08-20T12:03:08.697Z,42.16
2022-08-20T12:05:37.778Z,42.56
2022-08-20T12:08:05.037Z,44.06
2022-08-20T12:10:35.454Z,45.25
2022-08-20T12:13:04.622Z,43.48
2022-08-20T12:15:32.638Z,46.03
2022-08-20T12:17:59.305Z,42.35
2022-08-20T12:20:25.971Z,45.33
2022-08-20T12:22:54.029Z,44.75
2022-08-20T12:25:20.941Z,42.39
2022-08-20T12:27:47.733Z,42.40
2022-08-20T12:30:19.900Z,42.45
2022-08-20T12:32:47.156Z,41.87
2022-08-20T12:35:15.659Z,43.73
2022-08-20T12:37:42.981Z,40.90
2022-08-20T12:40:15.873Z,41.63
2022-08-20T12:42:42.542Z,43.92
2022-08-20T12:45:09.770Z,41.63
2022-08-20T12:47:40.701Z,43.85
2022-08-20T12:50:24.720Z,44.86
2022-08-20T12:52:53.123Z,42.41
2022-08-20T12:55:20.370Z,42.49
2022-08-20T12:57:50.456Z,41.73
2022-08-20T13:00:33.734Z,42.82
2022-08-20T13:03:02.141Z,46.88
2022-08-20T13:05:30.075Z,42.58
2022-08-20T13:07:57.699Z,43.73
2022-08-20T13:10:36.185Z,43.98
2022-08-20T13:13:03.560Z,44.72
2022-08-20T13:15:31.832Z,46.19
2022-08-20T13:18:01.563Z,42.41
2022-08-20T13:20:33.990Z,42.63
2022-08-20T13:23:01.619Z,42.53
2022-08-20T13:25:28.119Z,41.67
2022-08-20T13:27:57.870Z,45.00
2022-08-20T13:30:24.952Z,42.84
2022-08-20T13:32:51.643Z,43.03
2022-08-20T13:35:19.384Z,44.46
2022-08-20T13:37:46.084Z,45.36
2022-08-20T13:40:12.693Z,46.77
2022-08-20T13:42:41.881Z,44.64
2022-08-20T13:45:10.934Z,44.82
2022-08-20T13:47:40.286Z,45.55
2022-08-20T13:50:15.180Z,45.66
2022-08-20T13:52:42.992Z,46.25
2022-08-20T13:55:12.685Z,44.00
2022-08-20T13:57:40.632Z,47.69
2022-08-20T14:00:11.128Z,47.73
2022-08-20T14:02:37.954Z,45.98
2022-08-20T14:05:04.641Z,45.86
2022-08-20T14:07:32.768Z,43.89
2022-08-20T14:10:07.647Z,45.69
2022-08-20T14:12:34.342Z,46.92
2022-08-20T14:15:00.978Z,47.64
2022-08-20T14:17:30.748Z,44.74
2022-08-20T14:20:02.079Z,44.68
2022-08-20T14:22:29.460Z,45.59
2022-08-20T14:24:56.710Z,45.23
2022-08-20T14:27:27.828Z,45.29
2022-08-20T14:29:58.107Z,46.15
2022-08-20T14:32:24.609Z,46.40
2022-08-20T14:34:51.056Z,45.57
2022-08-20T14:37:28.563Z,47.61
2022-08-20T14:39:57.116Z,46.83
2022-08-20T14:42:26.520Z,49.26
2022-08-20T14:44:53.540Z,51.56
2022-08-20T14:47:29.546Z,51.12
2022-08-20T14:50:02.628Z,52.14
2022-08-20T14:52:32.913Z,51.29
2022-08-20T14:54:59.377Z,51.53
2022-08-20T14:57:28.906Z,51.86
2022-08-20T14:59:55.470Z,51.43
2022-08-20T15:02:22.396Z,49.69
2022-08-20T15:04:54.225Z,48.75
2022-08-20T15:07:27.421Z,51.56
2022-08-20T15:09:55.167Z,51.66
2022-08-20T15:12:22.142Z,50.37
2022-08-20T15:14:49.057Z,51.01
2022-08-20T15:17:23.616Z,50.27
2022-08-20T15:19:50.366Z,50.72
2022-08-20T15:22:17.849Z,50.39
2022-08-20T15:24:44.623Z,51.18
2022-08-20T15:27:22.745Z,53.55
2022-08-20T15:29:51.065Z,52.47
2022-08-20T15:32:18.402Z,52.62
2022-08-20T15:34:45.107Z,52.95
2022-08-20T15:37:23.201Z,52.58
2022-08-20T15:39:51.589Z,53.21
2022-08-20T15:42:20.280Z,53.59
2022-08-20T15:44:47.345Z,51.00
2022-08-20T15:47:16.770Z,50.18
2022-08-20T15:49:44.318Z,50.08
2022-08-20T15:52:13.961Z,51.79
2022-08-20T15:54:44.421Z,50.87
2022-08-20T15:57:48.440Z,51.25
2022-08-20T16:00:20.077Z,51.85
2022-08-20T16:03:13.498Z,52.00
2022-08-20T16:06:01.141Z,53.67
2022-08-20T16:08:42.051Z,51.18
2022-08-20T16:11:38.383Z,52.80
2022-08-20T16:14:15.836Z,52.33
2022-08-20T16:16:50.946Z,52.06
2022-08-20T16:19:50.952Z,53.37
2022-08-20T16:22:19.304Z,52.99
2022-08-20T16:24:46.094Z,52.51
2022-08-20T16:27:42.106Z,53.29
2022-08-20T16:30:20.948Z,53.79
2022-08-20T16:33:05.724Z,53.55
2022-08-20T16:36:03.705Z,52.39
2022-08-20T16:38:45.836Z,53.05
2022-08-20T16:41:25.793Z,53.49
2022-08-20T16:43:56.077Z,54.08
2022-08-20T16:46:34.996Z,53.91
2022-08-20T16:49:13.349Z,54.26
2022-08-20T16:51:43.230Z,54.35
2022-08-20T16:54:11.901Z,54.22
2022-08-20T16:56:41.792Z,54.18
2022-08-20T16:59:12.639Z,54.50
2022-08-20T17:02:01.556Z,55.04
2022-08-20T17:04:30.884Z,55.73
2022-08-20T17:07:02.474Z,55.62
2022-08-20T17:09:35.978Z,54.59
2022-08-20T17:12:16.623Z,55.26
2022-08-20T17:14:48.437Z,55.42
2022-08-20T17:17:21.232Z,55.03
2022-08-20T17:19:53.586Z,55.28
2022-08-20T17:22:21.240Z,54.54
2022-08-20T17:24:48.493Z,55.64
2022-08-20T17:27:36.438Z,55.85
2022-08-20T17:30:25.338Z,56.27
2022-08-20T17:33:05.534Z,56.53
2022-08-20T17:35:43.231Z,56.44
2022-08-20T17:38:27.574Z,56.67
2022-08-20T17:41:00.276Z,57.99
2022-08-20T17:43:33.292Z,57.25
2022-08-20T17:46:06.503Z,57.48
2022-08-20T17:48:46.921Z,58.40
2022-08-20T17:51:22.049Z,57.90
2022-08-20T17:53:55.093Z,57.38
2022-08-20T17:56:28.846Z,58.39
2022-08-20T17:59:24.056Z,57.98
2022-08-20T18:02:07.891Z,57.79
2022-08-20T18:04:34.382Z,57.80
2022-08-20T18:07:14.392Z,57.29
2022-08-20T18:10:12.200Z,57.97
2022-08-20T18:13:01.624Z,58.83
2022-08-20T18:16:01.599Z,59.01
2022-08-20T18:19:10.185Z,58.75
2022-08-20T18:21:55.885Z,58.12
2022-08-20T18:24:57.779Z,58.41
2022-08-20T18:27:28.004Z,58.06
2022-08-20T18:29:59.414Z,57.84
2022-08-20T18:32:36.592Z,57.76
2022-08-20T18:35:22.224Z,60.06
2022-08-20T18:37:48.733Z,60.97
2022-08-20T18:40:30.544Z,58.25
2022-08-20T18:43:10.733Z,58.92
2022-08-20T18:45:37.421Z,58.75
2022-08-20T18:48:07.737Z,59.65
2022-08-20T18:50:39.927Z,59.37
2022-08-20T18:53:24.597Z,60.18
2022-08-20T18:56:11.679Z,60.15
2022-08-20T18:58:59.382Z,61.03
2022-08-20T19:01:25.896Z,61.29
2022-08-20T19:03:55.901Z,63.22
2022-08-20T19:06:31.165Z,62.25
2022-08-20T19:09:00.502Z,63.46
2022-08-20T19:11:41.893Z,64.07
2022-08-20T19:14:11.473Z,64.52
2022-08-20T19:16:47.720Z,65.26
2022-08-20T19:19:20.546Z,64.40
2022-08-20T19:21:47.338Z,65.72
2022-08-20T19:24:23.577Z,65.64
2022-08-20T19:27:04.633Z,65.84
2022-08-20T19:29:37.293Z,65.95
2022-08-20T19:32:07.725Z,66.51
2022-08-20T19:34:35.496Z,66.75
2022-08-20T19:37:27.646Z,66.53
2022-08-20T19:39:52.008Z,66.39
2022-08-20T19:42:24.005Z,67.20
2022-08-20T19:45:00.947Z,66.90
2022-08-20T19:47:31.924Z,67.40
2022-08-20T19:50:29.512Z,67.52
2022-08-20T19:53:16.402Z,67.71
2022-08-20T19:55:48.357Z,68.27
2022-08-20T19:58:26.339Z,68.08
2022-08-20T20:00:55.377Z,68.14
2022-08-20T20:03:33.407Z,67.98
2022-08-20T20:06:20.462Z,67.94
2022-08-20T20:08:56.852Z,68.72
2022-08-20T20:11:32.939Z,68.53
2022-08-20T20:14:05.411Z,68.98
2022-08-20T20:16:43.672Z,69.16
2022-08-20T20:19:29.881Z,69.87
2022-08-20T20:22:13.367Z,69.95
2022-08-20T20:24:56.530Z,70.76
2022-08-20T20:27:26.531Z,70.71
2022-08-20T20:30:30.681Z,71.38
2022-08-20T20:32:59.608Z,70.95
2022-08-20T20:35:32.247Z,70.77
2022-08-20T20:38:01.039Z,71.13
2022-08-20T20:40:33.913Z,71.30
2022-08-20T20:43:06.547Z,71.82
2022-08-20T20:45:41.793Z,71.70
2022-08-20T20:48:39.656Z,71.76
2022-08-20T20:51:18.224Z,71.94
2022-08-20T20:53:54.311Z,71.90
2022-08-20T20:56:28.685Z,71.80
2022-08-20T20:59:01.255Z,72.69
2022-08-20T21:01:49.504Z,72.63
2022-08-20T21:04:22.241Z,72.23
2022-08-20T21:06:50.093Z,72.89
2022-08-20T21:09:18.947Z,72.65
2022-08-20T21:11:45.654Z,72.06
2022-08-20T21:14:12.522Z,72.80
2022-08-20T21:16:41.561Z,72.94
2022-08-20T21:19:09.943Z,72.74
2022-08-20T21:21:38.189Z,73.13
2022-08-20T21:24:05.904Z,73.48
2022-08-20T21:26:32.998Z,73.94
2022-08-20T21:28:59.772Z,73.77
2022-08-20T21:31:32.317Z,74.32
2022-08-20T21:33:58.835Z,74.40
2022-08-20T21:36:25.405Z,74.12
2022-08-20T21:38:52.022Z,74.39
2022-08-20T21:41:18.981Z,74.80
2022-08-20T21:44:00.707Z,74.61
2022-08-20T21:46:28.665Z,75.20
2022-08-20T21:48:56.897Z,75.22
2022-08-20T21:51:55.842Z,75.18
2022-08-20T21:54:22.689Z,75.67
2022-08-20T21:56:59.155Z,75.64
2022-08-20T21:59:25.946Z,75.91
2022-08-20T22:01:52.956Z,76.12
2022-08-20T22:04:20.005Z,76.13
2022-08-20T22:06:47.112Z,76.22
2022-08-20T22:09:14.399Z,76.63
2022-08-20T22:11:41.825Z,76.13
2022-08-20T22:14:10.303Z,76.59
2022-08-20T22:16:36.975Z,76.89
2022-08-20T22:19:03.665Z,77.40
2022-08-20T22:21:34.618Z,77.43
2022-08-20T22:24:03.983Z,77.48
2022-08-20T22:26:32.865Z,77.32
2022-08-20T22:28:59.837Z,77.04
2022-08-20T22:31:30.660Z,77.33
2022-08-20T22:33:58.017Z,77.42
2022-08-20T22:36:27.018Z,77.65
2022-08-20T22:38:55.029Z,77.58
2022-08-20T22:41:22.654Z,77.20
2022-08-20T22:43:56.414Z,77.87
2022-08-20T22:46:30.996Z,77.89
2022-08-20T22:48:57.773Z,78.01
2022-08-20T22:51:32.089Z,78.01
2022-08-20T22:54:03.295Z,77.97
2022-08-20T22:56:30.114Z,77.62
2022-08-20T22:58:59.090Z,78.75
2022-08-20T23:01:27.039Z,79.02
2022-08-20T23:03:54.281Z,78.91
2022-08-20T23:06:23.353Z,79.52
2022-08-20T23:08:50.065Z,79.45
2022-08-20T23:11:16.814Z,79.60
2022-08-20T23:13:45.663Z,79.87
2022-08-20T23:16:12.672Z,79.45
2022-08-20T23:18:40.562Z,79.10
2022-08-20T23:21:07.512Z,79.85
2022-08-20T23:23:34.224Z,79.79
2022-08-20T23:26:01.280Z,80.11
2022-08-20T23:28:28.041Z,79.08
2022-08-20T23:30:54.777Z,79.87
2022-08-20T23:33:21.345Z,80.38
2022-08-20T23:35:48.120Z,80.40
2022-08-20T23:38:15.289Z,80.29
2022-08-20T23:40:42.464Z,80.93
2022-08-20T23:43:09.804Z,81.42
2022-08-20T23:45:39.717Z,82.08
2022-08-20T23:48:07.901Z,82.30
2022-08-20T23:50:35.899Z,82.35
2022-08-20T23:53:06.096Z,82.33
2022-08-20T23:55:33.033Z,82.44
2022-08-20T23:58:02.238Z,82.85
